Time;durP1;ratioP1;P1;durP2;ratioP2;P2;SDS_P1;SDS_P2;PMS_P1;PMS_P2;Temp;Humidity;BMP_temperature;BMP_pressure;BME280_temperature;BME280_humidity;BME280_pressure;Samples;Min_cycle;Max_cycle;Signal;HPM_P1;HPM_P2
2022/05/23 00:02:09;;;;;;;;;;;;;;;17.82;69.18;92306.66;2055632;69;20547;-70
2022/05/23 00:04:34;;;;;;;;;;;;;;;18.01;66.83;92307.91;2055186;69;20129;-70
2022/05/23 00:07:00;;;;;;;;;;;;;;;17.89;68.51;92301.88;2055573;70;20145;-71
2022/05/23 00:09:26;;;;;;;;;;;;;;;17.86;68.14;92300.34;2068594;69;20165;-69
2022/05/23 00:11:52;;;;;;;;;;;;;;;17.77;68.44;92297.28;2055651;70;20499;-70
2022/05/23 00:14:17;;;;;;;;;;;;;;;17.73;69.45;92297.19;2055326;69;20050;-69
2022/05/23 00:16:45;;;;;;;;;;;;;;;17.85;67.74;92296.06;2055647;70;20050;-70
2022/05/23 00:19:11;;;;;;;;;;;;;;;17.89;68.22;92288.34;2068571;69;20065;-70
2022/05/23 00:21:45;;;;;;;;;;;;;;;17.17;71.15;92285.56;2055431;70;20431;-70
2022/05/23 00:24:13;;;;;;;;;;;;;;;17.16;71.12;92286.25;2055470;70;20050;-70
2022/05/23 00:26:39;;;;;;;;;;;;;;;17.54;69.34;92281.66;2068767;69;20494;-71
2022/05/23 00:29:05;;;;;;;;;;;;;;;17.54;68.68;92275.97;2055591;70;20135;-70
2022/05/23 00:31:30;;;;;;;;;;;;;;;17.60;69.09;92277.56;2068601;69;20086;-70
2022/05/23 00:36:40;;;;;;;;;;;;;;;17.47;70.71;92279.31;2055280;70;20157;-70
2022/05/23 00:39:06;;;;;;;;;;;;;;;17.74;65.50;92273.00;2068567;69;20648;-71
2022/05/23 00:44:19;;;;;;;;;;;;;;;17.56;69.64;92274.59;2068644;69;20078;-71
2022/05/23 00:46:49;;;;;;;;;;;;;;;17.41;68.88;92279.13;2068401;69;20054;-73
2022/05/23 00:49:17;;;;;;;;;;;;;;;17.30;69.76;92274.56;2055477;69;20050;-71
2022/05/23 00:51:42;;;;;;;;;;;;;;;17.32;69.25;92277.44;2055540;70;20111;-70
2022/05/23 00:54:08;;;;;;;;;;;;;;;17.42;70.21;92269.94;2068594;69;20066;-70
2022/05/23 00:56:41;;;;;;;;;;;;;;;17.50;68.45;92266.59;2055519;70;20050;-70
2022/05/23 00:59:08;;;;;;;;;;;;;;;17.48;68.25;92264.44;2068516;69;20120;-70
2022/05/23 01:01:36;;;;;;;;;;;;;;;17.59;68.75;92265.44;2055677;70;20049;-70
2022/05/23 01:04:02;;;;;;;;;;;;;;;17.56;68.39;92266.78;2055494;69;20058;-70
2022/05/23 01:06:31;;;;;;;;;;;;;;;17.52;67.62;92270.22;2068330;69;20060;-69
2022/05/23 01:08:56;;;;;;;;;;;;;;;17.64;66.03;92272.72;2055531;69;20453;-69
2022/05/23 01:11:22;;;;;;;;;;;;;;;17.49;67.97;92277.25;2068177;69;20113;-69
2022/05/23 01:13:48;;;;;;;;;;;;;;;17.60;66.61;92272.59;2055401;70;20058;-70
2022/05/23 01:16:14;;;;;;;;;;;;;;;17.64;66.86;92269.88;2068382;69;20495;-69
2022/05/23 01:18:44;;;;;;;;;;;;;;;17.61;67.18;92271.19;2068455;69;20042;-69
2022/05/23 01:21:15;;;;;;;;;;;;;;;17.59;67.11;92270.41;2068424;69;20051;-70
2022/05/23 01:23:56;;;;;;;;;;;;;;;17.54;68.98;92253.19;2067920;69;20074;-70
2022/05/23 01:26:31;;;;;;;;;;;;;;;17.45;67.18;92254.38;2055630;70;20054;-71
2022/05/23 01:28:58;;;;;;;;;;;;;;;17.45;67.90;92257.22;2068260;69;20645;-71
2022/05/23 01:31:39;;;;;;;;;;;;;;;17.55;66.42;92253.94;2068419;69;20069;-70
2022/05/23 01:34:14;;;;;;;;;;;;;;;17.51;67.01;92259.53;2068423;69;20050;-70
2022/05/23 01:36:49;;;;;;;;;;;;;;;17.40;68.26;92252.09;2068495;69;20061;-70
2022/05/23 01:39:15;;;;;;;;;;;;;;;17.50;67.48;92244.59;2055367;70;20066;-70
2022/05/23 01:41:41;;;;;;;;;;;;;;;17.48;67.55;92249.47;2055353;70;20072;-69
2022/05/23 01:44:06;;;;;;;;;;;;;;;17.40;69.59;92252.81;2068370;69;20081;-70
2022/05/23 01:46:35;;;;;;;;;;;;;;;17.48;66.70;92244.50;2068332;69;20042;-70
2022/05/23 01:49:24;;;;;;;;;;;;;;;17.48;66.76;92241.66;2059077;69;20452;-69
2022/05/23 01:51:50;;;;;;;;;;;;;;;17.54;67.22;92241.09;2068354;69;20094;-70
2022/05/23 01:54:18;;;;;;;;;;;;;;;17.36;68.14;92241.31;2068262;69;20054;-70
2022/05/23 01:56:48;;;;;;;;;;;;;;;17.43;66.19;92239.38;2068539;69;20120;-69
2022/05/23 02:02:03;;;;;;;;;;;;;;;17.43;66.53;92239.38;2068509;69;20173;-70
2022/05/23 02:04:36;;;;;;;;;;;;;;;17.38;67.95;92241.38;2068376;69;20068;-70
2022/05/23 02:07:02;;;;;;;;;;;;;;;17.25;68.87;92231.03;2055392;70;20054;-72
2022/05/23 02:09:33;;;;;;;;;;;;;;;17.35;68.24;92237.03;2065824;69;20050;-71
2022/05/23 02:12:18;;;;;;;;;;;;;;;17.33;67.86;92233.41;2068551;69;20046;-71
2022/05/23 02:14:45;;;;;;;;;;;;;;;17.53;65.30;92231.84;2068512;69;20061;-71
2022/05/23 02:17:23;;;;;;;;;;;;;;;17.30;67.84;92232.59;2068518;69;20080;-71
2022/05/23 02:19:51;;;;;;;;;;;;;;;17.42;65.10;92224.44;2068038;69;20057;-70
2022/05/23 02:22:18;;;;;;;;;;;;;;;17.19;69.02;92213.81;2055364;69;20441;-71
2022/05/23 02:24:43;;;;;;;;;;;;;;;17.10;68.72;92221.38;2055346;70;20042;-72
2022/05/23 02:27:09;;;;;;;;;;;;;;;17.05;70.37;92219.09;2068497;69;20076;-72
2022/05/23 02:29:38;;;;;;;;;;;;;;;17.10;67.55;92207.16;2068472;69;20058;-73
2022/05/23 02:32:04;;;;;;;;;;;;;;;17.11;68.20;92213.56;2068369;69;20050;-71
2022/05/23 02:34:30;;;;;;;;;;;;;;;17.17;67.42;92200.25;2068459;69;20054;-71
2022/05/23 02:36:56;;;;;;;;;;;;;;;17.18;67.12;92203.81;2068498;69;20173;-71
2022/05/23 02:39:44;;;;;;;;;;;;;;;17.03;67.15;92199.84;2068403;69;20045;-71
2022/05/23 02:42:10;;;;;;;;;;;;;;;17.01;67.74;92197.69;2068449;69;20054;-70
2022/05/23 02:44:37;;;;;;;;;;;;;;;17.10;68.11;92210.00;2068477;69;20098;-71
2022/05/23 02:47:04;;;;;;;;;;;;;;;16.98;68.93;92206.81;2068580;69;20062;-71
2022/05/23 02:49:33;;;;;;;;;;;;;;;16.92;69.03;92215.88;2068404;69;20146;-71
2022/05/23 02:52:00;;;;;;;;;;;;;;;16.91;69.25;92210.88;2068385;69;20046;-71
2022/05/23 02:54:35;;;;;;;;;;;;;;;16.84;70.56;92204.28;2068449;69;20456;-70
2022/05/23 02:57:03;;;;;;;;;;;;;;;16.86;68.85;92198.66;2068553;69;20060;-70
2022/05/23 02:59:28;;;;;;;;;;;;;;;16.82;69.88;92201.38;2055543;70;20122;-73
2022/05/23 03:08:23;;;;;;;;;;;;;;;16.64;71.20;92195.84;2055458;69;20053;-70
2022/05/23 03:10:50;;;;;;;;;;;;;;;16.69;70.33;92182.47;2068989;69;20111;-70
2022/05/23 03:13:16;;;;;;;;;;;;;;;16.19;72.82;92191.59;2068992;69;20093;-72
2022/05/23 03:15:41;;;;;;;;;;;;;;;16.60;69.99;92190.03;2056007;70;20133;-70
2022/05/23 03:18:07;;;;;;;;;;;;;;;16.55;71.10;92191.31;2066237;69;20085;-70
2022/05/23 03:20:36;;;;;;;;;;;;;;;16.61;69.64;92182.94;2068988;69;20562;-70
2022/05/23 03:28:35;;;;;;;;;;;;;;;16.55;69.43;92179.94;2068821;69;20047;-71
2022/05/23 03:31:01;;;;;;;;;;;;;;;16.53;70.36;92179.84;2068757;69;20089;-73
2022/05/23 03:33:27;;;;;;;;;;;;;;;16.38;71.16;92175.13;2068904;69;20074;-72
2022/05/23 03:35:54;;;;;;;;;;;;;;;16.44;70.62;92175.31;2066054;69;20061;-71
2022/05/23 03:38:20;;;;;;;;;;;;;;;16.59;68.01;92176.50;2068901;69;20431;-74
2022/05/23 03:40:46;;;;;;;;;;;;;;;16.35;69.87;92173.63;2055934;70;20135;-71
2022/05/23 03:43:11;;;;;;;;;;;;;;;16.42;70.19;92170.31;2068956;69;20491;-71
2022/05/23 03:45:37;;;;;;;;;;;;;;;16.53;68.35;92172.06;2068933;69;20062;-71
2022/05/23 03:48:07;;;;;;;;;;;;;;;16.64;67.60;92169.53;2068959;69;20054;-71
2022/05/23 03:50:33;;;;;;;;;;;;;;;16.64;67.35;92170.25;2068645;69;20123;-71
2022/05/23 03:53:00;;;;;;;;;;;;;;;16.56;68.91;92160.78;2068931;69;20058;-71
2022/05/23 03:55:28;;;;;;;;;;;;;;;16.55;69.92;92165.72;2055897;70;20108;-71
2022/05/23 03:58:09;;;;;;;;;;;;;;;16.48;68.66;92161.97;2068951;69;20494;-72
2022/05/23 04:00:35;;;;;;;;;;;;;;;16.59;68.63;92159.44;2068876;69;20058;-72
2022/05/23 04:03:01;;;;;;;;;;;;;;;16.33;69.21;92162.19;2069000;69;20262;-70
2022/05/23 04:05:27;;;;;;;;;;;;;;;16.27;70.76;92171.25;2068505;69;20174;-71
2022/05/23 04:08:12;;;;;;;;;;;;;;;16.42;69.92;92169.59;2055753;69;20058;-70
2022/05/23 04:14:12;;;;;;;;;;;;;;;16.58;67.80;92161.53;2055956;69;20042;-70
2022/05/23 04:16:43;;;;;;;;;;;;;;;16.60;68.75;92149.53;2068904;69;20123;-71
2022/05/23 04:19:09;;;;;;;;;;;;;;;16.68;68.71;92149.78;2068883;69;20061;-71
2022/05/23 04:21:48;;;;;;;;;;;;;;;16.50;70.35;92147.13;2068982;69;20096;-71
2022/05/23 04:24:21;;;;;;;;;;;;;;;16.63;69.16;92142.50;2051044;69;20505;-71
2022/05/23 04:26:56;;;;;;;;;;;;;;;16.63;68.85;92146.09;2069042;69;20116;-71
2022/05/23 04:29:24;;;;;;;;;;;;;;;16.66;68.71;92144.00;2068900;69;20074;-71
2022/05/23 04:31:49;;;;;;;;;;;;;;;16.37;71.43;92133.94;2068870;69;20061;-71
2022/05/23 04:37:12;;;;;;;;;;;;;;;16.61;69.50;92128.25;2069000;69;20085;-70
2022/05/23 04:39:42;;;;;;;;;;;;;;;16.41;70.32;92140.47;2068665;69;20150;-70
2022/05/23 04:42:08;;;;;;;;;;;;;;;16.62;70.02;92138.22;2055735;69;20141;-70
2022/05/23 04:44:33;;;;;;;;;;;;;;;16.72;68.35;92132.84;2068695;69;20048;-71
2022/05/23 04:49:49;;;;;;;;;;;;;;;16.68;70.19;92138.41;2068963;69;20724;-74
2022/05/23 04:52:50;;;;;;;;;;;;;;;16.70;67.60;92135.63;2057885;69;20043;-71
2022/05/23 04:55:17;;;;;;;;;;;;;;;16.80;66.83;92135.22;2068781;69;20514;-70
2022/05/23 04:57:45;;;;;;;;;;;;;;;16.58;71.01;92121.75;2068781;69;20057;-71
2022/05/23 05:00:14;;;;;;;;;;;;;;;16.76;68.86;92127.28;2068477;69;20054;-70
2022/05/23 05:02:49;;;;;;;;;;;;;;;16.76;68.21;92124.44;2068763;69;20478;-70
2022/05/23 05:05:16;;;;;;;;;;;;;;;16.51;71.50;92128.66;2068692;69;20215;-73
2022/05/23 05:07:53;;;;;;;;;;;;;;;16.72;70.32;92124.31;2068622;69;20054;-72
2022/05/23 05:10:21;;;;;;;;;;;;;;;16.94;69.68;92127.81;2068736;69;20057;-72
2022/05/23 05:12:48;;;;;;;;;;;;;;;17.01;70.03;92120.91;2068705;69;20065;-73
2022/05/23 05:15:17;;;;;;;;;;;;;;;17.22;64.71;92112.91;2068434;69;20086;-72
2022/05/23 05:17:44;;;;;;;;;;;;;;;17.19;64.74;92126.38;2068685;69;20115;-72
2022/05/23 05:20:10;;;;;;;;;;;;;;;17.10;67.23;92121.13;2068630;69;20054;-71
2022/05/23 05:22:54;;;;;;;;;;;;;;;17.14;69.57;92113.44;2055852;69;20050;-71
2022/05/23 05:25:31;;;;;;;;;;;;;;;17.22;67.98;92110.78;2068910;69;20482;-71
2022/05/23 05:28:03;;;;;;;;;;;;;;;17.30;68.68;92109.56;2068781;69;20062;-71
2022/05/23 05:30:28;;;;;;;;;;;;;;;17.28;70.23;92118.78;2068577;69;20136;-73
2022/05/23 05:33:00;;;;;;;;;;;;;;;17.45;65.52;92114.94;2068589;69;20474;-73
2022/05/23 05:35:44;;;;;;;;;;;;;;;17.37;67.32;92114.75;2068620;69;20149;-71
2022/05/23 05:38:21;;;;;;;;;;;;;;;17.56;67.70;92118.09;2055494;70;20090;-73
2022/05/23 05:40:50;;;;;;;;;;;;;;;17.61;65.54;92114.66;2068675;69;20066;-72
2022/05/23 05:43:20;;;;;;;;;;;;;;;17.40;66.00;92113.41;2068704;69;20066;-73
2022/05/23 05:45:52;;;;;;;;;;;;;;;17.46;65.79;92110.72;2068697;69;20063;-73
2022/05/23 05:48:40;;;;;;;;;;;;;;;17.72;66.48;92107.81;2068780;69;20116;-73
2022/05/23 05:51:11;;;;;;;;;;;;;;;17.73;64.76;92114.22;2068686;69;20057;-73
2022/05/23 05:53:43;;;;;;;;;;;;;;;17.67;67.82;92105.53;2068624;69;20086;-73
2022/05/23 05:56:17;;;;;;;;;;;;;;;17.84;63.63;92109.56;2068655;69;20539;-72
2022/05/23 05:58:42;;;;;;;;;;;;;;;17.81;64.55;92110.91;2068409;69;20062;-73
2022/05/23 06:01:11;;;;;;;;;;;;;;;17.96;63.65;92112.69;2068536;69;20141;-73
2022/05/23 06:03:40;;;;;;;;;;;;;;;17.91;62.74;92109.00;2068655;69;20058;-73
2022/05/23 06:15:17;;;;;;;;;;;;;;;18.11;62.08;92093.81;2055658;69;20073;-71
2022/05/23 06:17:43;;;;;;;;;;;;;;;18.31;61.91;92091.44;2055627;69;20058;-74
2022/05/23 06:20:10;;;;;;;;;;;;;;;18.47;60.53;92096.78;2068580;69;20402;-74
2022/05/23 06:22:36;;;;;;;;;;;;;;;17.95;63.92;92094.88;2068547;69;20070;-74
2022/05/23 06:25:16;;;;;;;;;;;;;;;17.98;64.73;92101.34;2068542;69;20054;-74
2022/05/23 06:27:42;;;;;;;;;;;;;;;18.41;62.90;92102.31;2068573;69;20057;-73
2022/05/23 06:30:11;;;;;;;;;;;;;;;18.52;61.92;92090.47;2068259;69;20059;-73
2022/05/23 06:32:43;;;;;;;;;;;;;;;18.70;60.62;92095.88;2055489;70;20093;-73
2022/05/23 06:35:10;;;;;;;;;;;;;;;18.58;62.79;92098.44;2068475;69;20146;-72
2022/05/23 06:37:39;;;;;;;;;;;;;;;18.87;61.17;92096.19;2068580;69;20085;-71
2022/05/23 06:40:23;;;;;;;;;;;;;;;19.03;60.38;92094.41;2055506;69;20049;-71
2022/05/23 06:43:07;;;;;;;;;;;;;;;19.21;62.29;92099.75;2055483;69;20077;-71
2022/05/23 06:49:19;;;;;;;;;;;;;;;19.07;63.70;92104.47;2055714;69;20149;-72
2022/05/23 06:52:20;;;;;;;;;;;;;;;19.14;60.80;92109.59;2068667;69;20475;-71
2022/05/23 06:58:24;;;;;;;;;;;;;;;19.32;62.70;92106.38;2055561;69;20131;-71
2022/05/23 07:00:51;;;;;;;;;;;;;;;19.25;61.90;92090.56;2068470;69;20486;-71
2022/05/23 07:03:22;;;;;;;;;;;;;;;18.92;62.71;92087.06;2068470;69;20430;-72
2022/05/23 07:14:16;;;;;;;;;;;;;;;19.72;58.25;92085.72;2068452;69;20050;-71
2022/05/23 07:16:42;;;;;;;;;;;;;;;19.77;59.55;92070.09;2068472;69;20227;-72
2022/05/23 07:19:08;;;;;;;;;;;;;;;19.85;59.58;92066.66;2068169;69;20084;-71
2022/05/23 07:21:46;;;;;;;;;;;;;;;19.29;60.25;92040.00;2068495;69;20065;-72
2022/05/23 07:24:15;;;;;;;;;;;;;;;19.18;60.03;92024.09;2068243;69;20043;-71
2022/05/23 07:26:51;;;;;;;;;;;;;;;19.20;61.00;92027.00;2068477;69;20077;-72
2022/05/23 07:29:17;;;;;;;;;;;;;;;19.61;59.60;92036.28;2068436;69;20490;-72
2022/05/23 07:31:44;;;;;;;;;;;;;;;19.75;59.11;92039.38;2068413;69;20055;-73
2022/05/23 07:34:10;;;;;;;;;;;;;;;19.90;60.02;92048.16;2068091;69;20059;-73
2022/05/23 07:36:35;;;;;;;;;;;;;;;19.67;60.35;92058.50;2068366;69;20043;-72
2022/05/23 07:39:08;;;;;;;;;;;;;;;19.82;59.75;92054.47;2068288;69;20054;-73
2022/05/23 07:41:53;;;;;;;;;;;;;;;19.40;59.58;92043.03;2055423;69;20128;-72
2022/05/23 07:44:23;;;;;;;;;;;;;;;19.87;59.29;92033.13;2068418;69;20073;-73
2022/05/23 07:46:50;;;;;;;;;;;;;;;20.07;58.23;92035.59;2068363;69;20472;-74
2022/05/23 07:49:18;;;;;;;;;;;;;;;20.51;58.61;92029.78;2068382;69;20085;-73
2022/05/23 07:52:06;;;;;;;;;;;;;;;20.90;61.16;92030.28;2055586;69;20452;-74
2022/05/23 08:03:41;;;;;;;;;;;;;;;21.70;56.80;92023.25;2055854;69;20046;-75
2022/05/23 08:06:18;;;;;;;;;;;;;;;22.02;55.80;92008.47;2068861;69;20070;-75
2022/05/23 08:08:44;;;;;;;;;;;;;;;21.91;56.15;92011.97;2068765;69;20133;-75
2022/05/23 08:11:10;;;;;;;;;;;;;;;22.39;54.62;92005.16;2068815;69;20150;-76
2022/05/23 08:13:54;;;;;;;;;;;;;;;22.64;53.50;92006.03;2068493;69;20085;-76
2022/05/23 08:16:19;;;;;;;;;;;;;;;22.87;52.55;92010.44;2068594;69;20146;-79
2022/05/23 08:18:45;;;;;;;;;;;;;;;22.81;52.41;91996.75;2068834;69;20519;-72
2022/05/23 08:21:11;;;;;;;;;;;;;;;23.15;50.87;91986.16;2066004;69;20124;-77
2022/05/23 08:23:41;;;;;;;;;;;;;;;23.53;51.29;91991.97;2068711;69;20054;-76
2022/05/23 08:26:21;;;;;;;;;;;;;;;23.57;49.34;91976.91;2068808;69;20100;-77
2022/05/23 08:28:49;;;;;;;;;;;;;;;24.12;48.59;91970.44;2068730;69;20481;-74
2022/05/23 08:31:18;;;;;;;;;;;;;;;24.02;48.84;91963.28;2068527;69;20073;-75
2022/05/23 08:33:59;;;;;;;;;;;;;;;24.31;49.19;91966.81;2068787;69;20047;-75
2022/05/23 08:36:28;;;;;;;;;;;;;;;24.59;48.96;91963.19;2066072;69;20157;-76
2022/05/23 08:38:53;;;;;;;;;;;;;;;24.58;48.42;91964.63;2068727;69;20203;-77
2022/05/23 08:41:31;;;;;;;;;;;;;;;25.01;48.00;91970.22;2068845;69;20057;-77
2022/05/23 08:44:28;;;;;;;;;;;;;;;25.20;47.41;91959.38;2068779;69;20058;-77
2022/05/23 08:47:01;;;;;;;;;;;;;;;25.07;48.55;91955.84;2066133;69;20145;-76
2022/05/23 08:49:45;;;;;;;;;;;;;;;25.25;47.46;91960.06;2068769;69;20110;-76
2022/05/23 08:52:19;;;;;;;;;;;;;;;25.84;46.78;91945.25;2068815;69;20472;-73
2022/05/23 08:54:49;;;;;;;;;;;;;;;26.17;45.32;91933.47;2068713;69;20047;-75
2022/05/23 08:57:51;;;;;;;;;;;;;;;26.45;44.95;91920.94;2055768;69;20061;-75
2022/05/23 09:00:20;;;;;;;;;;;;;;;26.92;43.45;91915.31;2065768;69;20096;-74
2022/05/23 09:02:49;;;;;;;;;;;;;;;26.51;43.33;91912.94;2068748;69;20486;-76
2022/05/23 09:05:32;;;;;;;;;;;;;;;26.40;42.76;91908.00;2066444;69;20167;-76
2022/05/23 09:08:03;;;;;;;;;;;;;;;26.78;43.14;91895.31;2055653;70;20063;-76
2022/05/23 09:10:28;;;;;;;;;;;;;;;27.06;43.23;91900.00;2068688;69;20481;-74
2022/05/23 09:12:54;;;;;;;;;;;;;;;26.78;42.44;91898.19;2055758;70;20047;-77
2022/05/23 09:15:22;;;;;;;;;;;;;;;27.11;40.82;91889.84;2055866;69;20050;-78
2022/05/23 09:17:56;;;;;;;;;;;;;;;27.28;41.97;91888.16;2055745;69;20117;-75
2022/05/23 09:20:30;;;;;;;;;;;;;;;27.77;40.58;91878.75;2055904;70;20137;-78
2022/05/23 09:22:58;;;;;;;;;;;;;;;27.25;40.12;91878.06;2055679;69;20062;-79
2022/05/23 09:25:25;;;;;;;;;;;;;;;27.69;37.35;91870.19;2055572;70;20512;-77
2022/05/23 09:28:09;;;;;;;;;;;;;;;28.02;37.05;91861.69;2068784;69;20089;-73
2022/05/23 09:30:39;;;;;;;;;;;;;;;28.00;38.86;91858.13;2055693;70;20058;-80
2022/05/23 09:33:10;;;;;;;;;;;;;;;28.01;38.06;91848.00;2055651;70;20066;-74
2022/05/23 09:35:41;;;;;;;;;;;;;;;28.06;36.45;91841.38;2055865;69;20433;-74
2022/05/23 09:38:18;;;;;;;;;;;;;;;27.67;36.83;91834.81;2055605;70;20476;-75
2022/05/23 09:41:02;;;;;;;;;;;;;;;27.45;36.53;91825.06;2055748;69;20053;-75
2022/05/23 09:49:05;;;;;;;;;;;;;;;28.94;36.74;91818.69;2055706;70;20058;-75
2022/05/23 09:51:31;;;;;;;;;;;;;;;29.48;36.61;91818.94;2055695;70;20567;-75
2022/05/23 09:53:59;;;;;;;;;;;;;;;29.36;37.29;91811.94;2055613;70;20050;-74
2022/05/23 09:56:30;;;;;;;;;;;;;;;30.20;36.19;91812.81;2055668;70;20145;-77
2022/05/23 09:58:56;;;;;;;;;;;;;;;29.87;36.34;91807.84;2055324;70;20054;-77
2022/05/23 10:01:26;;;;;;;;;;;;;;;29.39;35.37;91801.03;2068700;69;20116;-75
2022/05/23 10:03:52;;;;;;;;;;;;;;;29.23;36.37;91799.22;2055625;70;20499;-74
2022/05/23 10:06:17;;;;;;;;;;;;;;;29.23;36.87;91786.91;2055617;69;20105;-74
2022/05/23 10:08:44;;;;;;;;;;;;;;;29.86;35.34;91791.88;2055472;69;20113;-77
2022/05/23 10:11:35;;;;;;;;;;;;;;;30.59;33.79;91776.88;2056533;69;20119;-76
2022/05/23 10:14:02;;;;;;;;;;;;;;;31.46;34.10;91773.56;2055630;70;20172;-77
2022/05/23 10:16:29;;;;;;;;;;;;;;;30.88;31.40;91779.69;2055273;70;20062;-78
2022/05/23 10:19:02;;;;;;;;;;;;;;;31.64;33.54;91778.78;2055588;70;20119;-76
2022/05/23 10:21:31;;;;;;;;;;;;;;;30.84;32.78;91774.72;2055602;69;20101;-75
2022/05/23 10:23:59;;;;;;;;;;;;;;;31.59;32.34;91768.78;2055481;69;20054;-77
2022/05/23 10:26:26;;;;;;;;;;;;;;;32.03;31.00;91757.16;2055629;70;20578;-77
2022/05/23 10:28:56;;;;;;;;;;;;;;;32.30;31.76;91762.75;2055602;70;20089;-77
2022/05/23 10:31:21;;;;;;;;;;;;;;;33.24;31.34;91761.50;2055583;69;20090;-77
2022/05/23 10:33:50;;;;;;;;;;;;;;;33.17;30.05;91745.75;2055607;70;20109;-78
2022/05/23 10:36:24;;;;;;;;;;;;;;;33.51;29.85;91741.47;2055579;69;20062;-75
2022/05/23 10:44:34;;;;;;;;;;;;;;;34.96;28.36;91722.84;2055287;70;20062;-74
2022/05/23 10:47:06;;;;;;;;;;;;;;;34.80;27.74;91727.94;2055310;70;20058;-76
2022/05/23 10:49:38;;;;;;;;;;;;;;;34.49;26.06;91724.97;2055504;70;20081;-76
2022/05/23 10:52:04;;;;;;;;;;;;;;;36.38;25.45;91715.91;2055656;70;20054;-76
2022/05/23 10:54:40;;;;;;;;;;;;;;;35.03;27.08;91715.25;2055436;70;20049;-73
2022/05/23 10:57:21;;;;;;;;;;;;;;;35.04;27.02;91711.50;2055501;70;20124;-74
2022/05/23 10:59:53;;;;;;;;;;;;;;;33.76;26.76;91709.06;2055513;70;20046;-73
2022/05/23 11:02:25;;;;;;;;;;;;;;;36.06;25.56;91714.66;2055550;70;20101;-73
2022/05/23 11:05:21;;;;;;;;;;;;;;;36.07;25.51;91704.38;2055520;69;20482;-73
2022/05/23 11:08:00;;;;;;;;;;;;;;;34.40;26.96;91701.25;2055793;69;20121;-74
2022/05/23 11:10:46;;;;;;;;;;;;;;;34.65;28.03;91700.88;2055430;70;20054;-75
2022/05/23 11:13:20;;;;;;;;;;;;;;;33.85;28.00;91701.38;2068468;69;20592;-75
2022/05/23 11:15:58;;;;;;;;;;;;;;;32.20;30.72;91687.41;2055473;70;20138;-75
2022/05/23 11:18:39;;;;;;;;;;;;;;;33.53;28.87;91696.91;2054824;70;20057;-74
2022/05/23 11:21:07;;;;;;;;;;;;;;;35.78;26.44;91691.13;2054470;70;20652;-73
2022/05/23 11:23:36;;;;;;;;;;;;;;;36.31;25.84;91688.44;2067329;69;20490;-74
2022/05/23 11:26:11;;;;;;;;;;;;;;;34.93;26.24;91683.53;2054708;69;20051;-71
2022/05/23 11:34:23;;;;;;;;;;;;;;;34.75;26.43;91670.47;2055928;70;20046;-74
2022/05/23 11:39:46;;;;;;;;;;;;;;;37.72;24.62;91665.41;2055376;70;20517;-71
2022/05/23 11:42:32;;;;;;;;;;;;;;;34.53;26.90;91643.00;2055814;70;20050;-75
2022/05/23 11:45:00;;;;;;;;;;;;;;;37.37;24.76;91641.66;2055858;70;20130;-75
2022/05/23 11:47:27;;;;;;;;;;;;;;;40.39;20.62;91646.38;2068808;69;20051;-74
2022/05/23 11:49:58;;;;;;;;;;;;;;;42.90;19.41;91633.22;2055781;69;20051;-73
2022/05/23 11:52:38;;;;;;;;;;;;;;;42.64;19.41;91627.13;2055832;70;20161;-73
2022/05/23 11:55:04;;;;;;;;;;;;;;;42.96;17.69;91623.16;2055749;70;20050;-72
2022/05/23 11:57:33;;;;;;;;;;;;;;;40.18;21.50;91622.78;2055766;69;20050;-72
2022/05/23 12:00:00;;;;;;;;;;;;;;;37.68;24.04;91618.69;2055761;69;20113;-71
2022/05/23 12:02:27;;;;;;;;;;;;;;;36.59;24.89;91615.91;2055648;70;20134;-73
2022/05/23 12:04:54;;;;;;;;;;;;;;;35.36;25.51;91609.06;2055556;70;20046;-71
2022/05/23 12:07:36;;;;;;;;;;;;;;;34.71;26.71;91609.28;2055759;70;20058;-69
2022/05/23 12:10:20;;;;;;;;;;;;;;;32.88;27.88;91613.47;2055773;69;20058;-70
2022/05/23 12:12:47;;;;;;;;;;;;;;;32.28;28.60;91601.97;2055717;70;20136;-74
2022/05/23 12:15:32;;;;;;;;;;;;;;;32.19;31.78;91610.31;2055827;69;20155;-72
2022/05/23 12:17:58;;;;;;;;;;;;;;;32.02;33.17;91621.84;2055700;69;20061;-72
2022/05/23 12:20:25;;;;;;;;;;;;;;;32.05;37.58;91631.91;2055771;70;20046;-75
2022/05/23 12:23:10;;;;;;;;;;;;;;;31.07;40.74;91632.38;2055719;69;20046;-71
2022/05/23 12:25:35;;;;;;;;;;;;;;;30.11;44.49;91614.97;2055766;70;20050;-72
2022/05/23 12:28:20;;;;;;;;;;;;;;;30.75;42.10;91578.25;2068748;69;20046;-71
2022/05/23 12:31:04;;;;;;;;;;;;;;;34.18;38.10;91551.13;2055711;70;20128;-72
2022/05/23 12:33:31;;;;;;;;;;;;;;;38.77;29.37;91555.47;2055791;70;20475;-71
2022/05/23 12:36:06;;;;;;;;;;;;;;;39.38;28.51;91580.97;2068522;69;20054;-73
2022/05/23 12:38:51;;;;;;;;;;;;;;;37.16;33.61;91568.09;2055789;70;20117;-72
2022/05/23 12:41:32;;;;;;;;;;;;;;;35.09;33.22;91548.97;2055646;69;20058;-72
2022/05/23 12:44:16;;;;;;;;;;;;;;;34.70;32.96;91546.53;2055762;70;20145;-73
2022/05/23 12:46:51;;;;;;;;;;;;;;;34.00;35.58;91549.03;2055820;69;20082;-72
2022/05/23 12:49:26;;;;;;;;;;;;;;;34.32;35.91;91535.16;2056065;69;20053;-72
2022/05/23 12:52:10;;;;;;;;;;;;;;;34.52;34.43;91531.28;2055953;69;20091;-72
2022/05/23 12:58:03;;;;;;;;;;;;;;;34.71;36.59;91516.47;2055790;69;20140;-72
2022/05/23 13:00:34;;;;;;;;;;;;;;;34.08;37.87;91504.84;2055800;70;20106;-72
2022/05/23 13:03:09;;;;;;;;;;;;;;;32.48;34.62;91496.38;2055890;70;20047;-72
2022/05/23 13:09:03;;;;;;;;;;;;;;;32.65;36.63;91484.78;2055864;69;20057;-76
2022/05/23 13:11:34;;;;;;;;;;;;;;;32.27;38.39;91492.84;2068776;69;20046;-72
2022/05/23 13:14:02;;;;;;;;;;;;;;;31.13;36.75;91491.94;2055780;70;20053;-73
2022/05/23 13:16:33;;;;;;;;;;;;;;;31.94;36.64;91511.59;2055798;70;20108;-72
2022/05/23 13:24:54;;;;;;;;;;;;;;;32.04;39.29;91469.75;2064258;69;20525;-73
2022/05/23 13:27:27;;;;;;;;;;;;;;;32.33;39.57;91457.66;2057325;69;20046;-71
2022/05/23 13:29:58;;;;;;;;;;;;;;;32.37;39.52;91451.69;2055716;70;20136;-73
2022/05/23 13:32:26;;;;;;;;;;;;;;;32.52;38.27;91443.09;2055657;69;20465;-72
2022/05/23 13:34:52;;;;;;;;;;;;;;;32.31;37.79;91431.56;2055740;69;20057;-73
2022/05/23 13:37:24;;;;;;;;;;;;;;;31.57;35.99;91424.97;2055754;69;20086;-72
2022/05/23 13:39:50;;;;;;;;;;;;;;;31.38;35.87;91425.66;2055641;70;20156;-72
2022/05/23 13:42:24;;;;;;;;;;;;;;;31.45;34.98;91431.94;2055690;69;20102;-72
2022/05/23 13:48:25;;;;;;;;;;;;;;;31.41;37.29;91454.66;2055735;69;20173;-72
2022/05/23 13:50:58;;;;;;;;;;;;;;;31.43;37.62;91434.22;2068696;69;20166;-72
2022/05/23 13:53:30;;;;;;;;;;;;;;;30.80;35.56;91426.28;2068505;69;20115;-72
2022/05/23 13:55:58;;;;;;;;;;;;;;;31.41;36.13;91414.66;2055843;70;20046;-71
2022/05/23 13:58:25;;;;;;;;;;;;;;;31.45;35.54;91420.31;2055742;70;20115;-72
2022/05/23 14:00:55;;;;;;;;;;;;;;;31.37;36.34;91406.06;2055646;70;20058;-72
2022/05/23 14:03:22;;;;;;;;;;;;;;;31.21;36.63;91401.56;2055648;70;20054;-71
2022/05/23 14:05:49;;;;;;;;;;;;;;;31.69;33.36;91400.50;2055622;70;20082;-72
2022/05/23 14:08:16;;;;;;;;;;;;;;;31.07;32.75;91408.59;2055577;69;20057;-72
2022/05/23 14:10:44;;;;;;;;;;;;;;;30.98;34.65;91403.88;2055641;69;20146;-71
2022/05/23 14:13:10;;;;;;;;;;;;;;;30.89;34.63;91415.06;2055579;70;20141;-71
2022/05/23 14:15:36;;;;;;;;;;;;;;;30.60;39.36;91413.13;2055641;69;20038;-71
2022/05/23 14:18:02;;;;;;;;;;;;;;;30.66;36.77;91411.53;2055826;70;20479;-74
2022/05/23 14:20:35;;;;;;;;;;;;;;;30.83;34.84;91421.78;2055651;69;20054;-75
2022/05/23 14:23:00;;;;;;;;;;;;;;;30.23;35.16;91407.84;2055643;69;20051;-76
2022/05/23 14:25:29;;;;;;;;;;;;;;;30.79;36.04;91406.69;2055462;70;20414;-75
2022/05/23 14:27:55;;;;;;;;;;;;;;;30.90;38.76;91401.97;2055607;70;20093;-72
2022/05/23 14:30:23;;;;;;;;;;;;;;;30.74;38.82;91397.44;2055593;70;20142;-73
2022/05/23 14:33:01;;;;;;;;;;;;;;;30.45;36.82;91382.47;2055552;70;20077;-72
2022/05/23 14:35:33;;;;;;;;;;;;;;;30.29;34.57;91390.25;2055602;70;20555;-72
2022/05/23 14:37:59;;;;;;;;;;;;;;;30.50;37.52;91401.16;2055586;69;20521;-74
2022/05/23 14:40:38;;;;;;;;;;;;;;;28.51;34.49;91417.97;2055538;70;20058;-72
2022/05/23 14:43:08;;;;;;;;;;;;;;;29.07;34.02;91429.47;2055584;70;20058;-73
2022/05/23 14:45:34;;;;;;;;;;;;;;;29.83;34.00;91448.28;2068572;69;20488;-73
2022/05/23 14:47:59;;;;;;;;;;;;;;;29.15;35.56;91468.41;2068552;69;20490;-73